Time;durP1;ratioP1;P1;durP2;ratioP2;P2;SDS_P1;SDS_P2;PMS_P1;PMS_P2;Temp;Humidity;BMP_temperature;BMP_pressure;BME280_temperature;BME280_humidity;BME280_pressure;Samples;Min_cycle;Max_cycle;Signal;HPM_P1;HPM_P2
2022/06/29 00:00:52;;;;;;;4.67;4.17;;;17.40;95.80;;;;;;4977964;28;20424;-86
2022/06/29 00:03:20;;;;;;;5.10;4.70;;;17.30;95.80;;;;;;5009756;28;20529;-86
2022/06/29 00:05:49;;;;;;;5.30;4.57;;;17.30;96.00;;;;;;4977365;28;20424;-86
2022/06/29 00:08:17;;;;;;;4.63;4.23;;;17.30;96.10;;;;;;4978629;28;20851;-86
2022/06/29 00:10:47;;;;;;;5.23;4.83;;;17.20;96.10;;;;;;4977774;28;20469;-86
2022/06/29 00:13:15;;;;;;;5.80;5.30;;;17.20;96.20;;;;;;4977683;28;20994;-86
2022/06/29 00:15:43;;;;;;;6.20;5.70;;;17.10;96.20;;;;;;4978302;28;20458;-86
2022/06/29 00:18:12;;;;;;;6.07;5.40;;;17.10;96.40;;;;;;4977523;28;20476;-86
2022/06/29 00:20:40;;;;;;;6.53;5.90;;;17.10;96.50;;;;;;4977216;28;20876;-86
2022/06/29 00:23:10;;;;;;;6.50;5.97;;;17.00;96.50;;;;;;4976970;28;20523;-86
2022/06/29 00:25:38;;;;;;;6.97;6.40;;;17.00;96.60;;;;;;4977152;28;20939;-86
2022/06/29 00:28:08;;;;;;;7.27;6.57;;;17.00;96.70;;;;;;4977643;28;20567;-86
2022/06/29 00:30:37;;;;;;;7.60;7.00;;;17.00;96.80;;;;;;4976943;28;20460;-86
2022/06/29 00:33:05;;;;;;;7.67;7.00;;;16.90;96.90;;;;;;4976965;28;20420;-86
2022/06/29 00:35:33;;;;;;;6.97;6.47;;;16.90;96.90;;;;;;4976767;28;20509;-86
2022/06/29 00:38:01;;;;;;;9.03;8.43;;;16.80;96.90;;;;;;5009909;28;20469;-86
2022/06/29 00:40:30;;;;;;;7.67;7.17;;;16.80;97.00;;;;;;4978101;28;20500;-86
2022/06/29 00:42:58;;;;;;;7.43;7.03;;;16.80;97.10;;;;;;5009343;28;20477;-86
2022/06/29 00:45:28;;;;;;;8.33;7.73;;;16.80;97.20;;;;;;5009226;28;20969;-86
2022/06/29 00:47:56;;;;;;;8.20;7.50;;;16.70;97.20;;;;;;4977025;28;20503;-86
2022/06/29 00:50:27;;;;;;;8.70;8.10;;;16.70;97.30;;;;;;4976323;28;20523;-86
2022/06/29 00:52:59;;;;;;;8.80;8.20;;;16.70;97.40;;;;;;4977432;28;20405;-86
2022/06/29 00:55:30;;;;;;;9.00;8.10;;;16.70;97.40;;;;;;4976473;28;20538;-86
2022/06/29 00:58:03;;;;;;;8.77;8.17;;;16.60;97.40;;;;;;4978672;28;20496;-86
2022/06/29 01:00:34;;;;;;;9.20;8.37;;;16.60;97.80;;;;;;4976791;28;20492;-86
2022/06/29 01:03:03;;;;;;;9.30;8.50;;;16.60;97.90;;;;;;4976440;28;20940;-86
2022/06/29 01:05:32;;;;;;;9.43;8.83;;;16.50;97.60;;;;;;4978092;28;20488;-86
2022/06/29 01:08:00;;;;;;;9.33;8.63;;;16.50;97.70;;;;;;4976771;28;20472;-86
2022/06/29 01:10:28;;;;;;;9.07;8.47;;;16.50;97.70;;;;;;4976386;28;20439;-86
2022/06/29 01:12:57;;;;;;;9.80;9.20;;;16.40;97.80;;;;;;4980047;28;21066;-86
2022/06/29 01:15:25;;;;;;;9.07;8.47;;;16.40;98.10;;;;;;4980838;28;20492;-86
2022/06/29 01:17:54;;;;;;;9.80;9.00;;;16.40;97.90;;;;;;4980557;28;22723;-86
2022/06/29 01:20:23;;;;;;;9.47;8.87;;;16.40;98.00;;;;;;4980350;28;20449;-86
2022/06/29 01:22:52;;;;;;;10.10;9.37;;;16.30;98.00;;;;;;4980652;28;20456;-86
2022/06/29 01:25:20;;;;;;;11.40;10.60;;;16.30;98.10;;;;;;4980245;28;20424;-86
2022/06/29 01:27:49;;;;;;;11.20;10.30;;;16.30;98.20;;;;;;4981924;28;20415;-86
2022/06/29 01:30:17;;;;;;;10.17;9.50;;;16.30;98.20;;;;;;5012900;28;20868;-86
2022/06/29 01:32:45;;;;;;;10.07;9.37;;;16.20;98.30;;;;;;4980395;28;20921;-86
2022/06/29 01:35:16;;;;;;;11.07;10.37;;;16.20;98.40;;;;;;4981245;28;21062;-86
2022/06/29 01:37:44;;;;;;;11.00;10.27;;;16.20;98.50;;;;;;4981492;28;20412;-86
2022/06/29 01:40:14;;;;;;;11.17;10.27;;;16.20;98.90;;;;;;4982057;28;20466;-86
2022/06/29 01:42:42;;;;;;;11.43;10.70;;;16.10;98.70;;;;;;4980242;28;21013;-86
2022/06/29 01:45:11;;;;;;;12.03;11.23;;;16.10;98.70;;;;;;4981656;28;20417;-86
2022/06/29 01:47:39;;;;;;;13.70;12.60;;;16.10;98.80;;;;;;4980099;28;20532;-86
2022/06/29 01:50:08;;;;;;;12.60;11.50;;;16.10;99.00;;;;;;4981553;28;20910;-86
2022/06/29 01:52:36;;;;;;;13.07;12.07;;;16.10;99.10;;;;;;4980555;28;20449;-86
2022/06/29 01:55:05;;;;;;;11.30;10.60;;;16.00;99.10;;;;;;4980013;28;20436;-86
2022/06/29 01:57:35;;;;;;;13.97;12.90;;;16.00;99.20;;;;;;4988678;28;20420;-86
2022/06/29 02:00:04;;;;;;;13.27;12.33;;;16.00;99.30;;;;;;4978693;28;20446;-86
2022/06/29 02:02:34;;;;;;;12.90;11.83;;;16.00;99.40;;;;;;4986293;28;20400;-85
2022/06/29 02:05:02;;;;;;;13.40;12.40;;;16.00;99.50;;;;;;5021309;28;20436;-85
2022/06/29 02:07:30;;;;;;;13.00;11.97;;;16.00;99.60;;;;;;4987732;28;20488;-85
2022/06/29 02:09:59;;;;;;;13.70;12.80;;;16.00;99.60;;;;;;4987647;28;20449;-85
2022/06/29 02:12:27;;;;;;;13.30;12.37;;;16.00;99.70;;;;;;4988798;28;20496;-85
2022/06/29 02:14:56;;;;;;;12.97;12.07;;;16.00;99.80;;;;;;4990388;28;20484;-85
2022/06/29 02:17:25;;;;;;;12.77;11.80;;;16.00;99.80;;;;;;4989065;28;20549;-85
2022/06/29 02:19:53;;;;;;;12.40;11.43;;;16.00;99.90;;;;;;4988599;28;20558;-85
2022/06/29 02:22:21;;;;;;;12.33;11.33;;;16.00;99.90;;;;;;4988020;28;20471;-85
2022/06/29 02:24:50;;;;;;;12.03;11.23;;;16.00;99.90;;;;;;4988942;28;20476;-85
2022/06/29 02:27:18;;;;;;;12.17;11.37;;;16.00;99.90;;;;;;4990870;28;20413;-85
2022/06/29 02:29:47;;;;;;;11.97;11.17;;;16.00;99.90;;;;;;5028049;28;20519;-85
2022/06/29 02:35:02;;;;;;;12.53;11.63;;;15.90;99.90;;;;;;5026921;28;20442;-85
2022/06/29 02:37:31;;;;;;;12.10;11.20;;;15.90;99.90;;;;;;4993821;28;20448;-85
2022/06/29 02:39:59;;;;;;;12.13;11.33;;;15.80;99.90;;;;;;4993040;28;20508;-85
2022/06/29 02:42:28;;;;;;;11.57;10.80;;;15.80;99.90;;;;;;4993402;28;20469;-85
2022/06/29 02:45:16;;;;;;;12.43;11.43;;;15.80;99.90;;;;;;4992287;28;20447;-85
2022/06/29 02:47:50;;;;;;;12.47;11.67;;;15.80;99.90;;;;;;4992661;28;20452;-85
2022/06/29 02:50:19;;;;;;;12.73;11.83;;;15.80;99.90;;;;;;4990952;28;20450;-85
2022/06/29 02:52:47;;;;;;;11.80;10.93;;;15.80;99.90;;;;;;4991718;28;20504;-85
2022/06/29 02:55:15;;;;;;;11.30;10.50;;;15.70;99.90;;;;;;4990822;28;20989;-85
2022/06/29 02:57:44;;;;;;;12.13;11.23;;;15.70;99.90;;;;;;5023351;28;20888;-85
2022/06/29 03:00:14;;;;;;;11.13;10.30;;;15.70;99.90;;;;;;4989913;28;20453;-85
2022/06/29 03:02:42;;;;;;;11.13;10.23;;;15.70;99.90;;;;;;4989799;28;20508;-85
2022/06/29 03:05:12;;;;;;;11.50;10.70;;;15.70;99.90;;;;;;5022899;28;20478;-85
2022/06/29 03:07:40;;;;;;;11.60;10.70;;;15.60;99.90;;;;;;4988522;28;20446;-85
2022/06/29 03:10:09;;;;;;;11.50;10.70;;;15.60;99.90;;;;;;4989528;28;20417;-85
2022/06/29 03:12:37;;;;;;;12.27;11.07;;;15.60;99.90;;;;;;4987966;28;20465;-85
2022/06/29 03:15:07;;;;;;;11.73;10.70;;;15.60;99.90;;;;;;4989219;28;20803;-85
2022/06/29 03:17:35;;;;;;;11.10;10.30;;;15.50;99.90;;;;;;4987717;28;20493;-85
2022/06/29 03:20:04;;;;;;;10.57;9.67;;;15.50;99.90;;;;;;4989427;28;20444;-85
2022/06/29 03:22:35;;;;;;;11.30;10.40;;;15.50;99.90;;;;;;4988354;28;20953;-85
2022/06/29 03:25:04;;;;;;;11.80;10.87;;;15.50;99.90;;;;;;4989086;28;20442;-85
2022/06/29 03:27:33;;;;;;;10.20;9.40;;;15.50;99.90;;;;;;5019783;28;20790;-86
2022/06/29 03:30:01;;;;;;;10.70;10.00;;;15.50;99.90;;;;;;4987150;28;20454;-85
2022/06/29 03:32:29;;;;;;;12.80;11.70;;;15.50;99.90;;;;;;5019185;28;20524;-85
2022/06/29 03:34:58;;;;;;;17.60;16.00;;;15.50;99.90;;;;;;4988475;28;20974;-85
2022/06/29 03:37:26;;;;;;;13.83;12.73;;;15.50;99.90;;;;;;5025257;28;20493;-85
2022/06/29 03:39:56;;;;;;;13.73;12.33;;;15.50;99.90;;;;;;5030219;28;20454;-85
2022/06/29 03:42:24;;;;;;;14.50;13.40;;;15.50;99.90;;;;;;4999001;28;20449;-85
2022/06/29 03:44:54;;;;;;;14.00;12.90;;;15.50;99.90;;;;;;4992590;28;20460;-85
2022/06/29 03:47:25;;;;;;;12.30;11.40;;;15.50;99.90;;;;;;5023759;28;20481;-85
2022/06/29 03:49:53;;;;;;;13.30;12.10;;;15.50;99.90;;;;;;4990969;28;20466;-85
2022/06/29 03:52:22;;;;;;;11.13;10.33;;;15.50;99.90;;;;;;5022723;28;20481;-84
2022/06/29 03:54:50;;;;;;;10.13;9.33;;;15.50;99.90;;;;;;4990508;28;20428;-84
2022/06/29 03:57:20;;;;;;;12.37;11.37;;;15.50;99.90;;;;;;4990140;28;20477;-84
2022/06/29 03:59:48;;;;;;;10.93;10.13;;;15.50;99.90;;;;;;4988955;28;20836;-85
2022/06/29 04:02:16;;;;;;;9.80;9.10;;;15.50;99.90;;;;;;4990055;28;20420;-85
2022/06/29 04:04:45;;;;;;;9.73;9.03;;;15.60;99.90;;;;;;4989687;28;20509;-85
2022/06/29 04:07:13;;;;;;;10.60;9.80;;;15.60;99.90;;;;;;4988192;28;20477;-85
2022/06/29 04:09:41;;;;;;;10.00;9.20;;;15.60;99.90;;;;;;4988704;28;20472;-84
2022/06/29 04:12:10;;;;;;;9.30;8.70;;;15.60;99.90;;;;;;4987212;28;20467;-85
2022/06/29 04:14:40;;;;;;;10.30;9.50;;;15.70;99.90;;;;;;4987537;28;20954;-85
2022/06/29 04:17:08;;;;;;;9.47;8.87;;;15.70;99.90;;;;;;4987336;28;20501;-84
2022/06/29 04:19:36;;;;;;;9.73;9.03;;;15.70;99.90;;;;;;4987777;28;20528;-84
2022/06/29 04:22:05;;;;;;;10.00;9.37;;;15.80;99.90;;;;;;4987437;28;20436;-85
2022/06/29 04:24:33;;;;;;;9.80;9.10;;;15.80;99.90;;;;;;4987280;28;20458;-84
2022/06/29 04:27:01;;;;;;;9.40;8.60;;;15.80;99.90;;;;;;4989068;28;20481;-84
2022/06/29 04:29:29;;;;;;;9.67;8.97;;;15.80;99.90;;;;;;4986542;28;20444;-85
2022/06/29 04:31:59;;;;;;;9.47;8.87;;;15.80;99.90;;;;;;4987689;28;20436;-84
2022/06/29 04:34:27;;;;;;;9.50;8.80;;;15.90;99.90;;;;;;4986722;28;20474;-84
2022/06/29 04:36:56;;;;;;;10.30;9.40;;;15.90;99.90;;;;;;4989161;28;20451;-84
2022/06/29 04:39:24;;;;;;;11.60;10.70;;;16.00;99.90;;;;;;4986907;28;20448;-85
2022/06/29 04:41:53;;;;;;;11.27;10.47;;;16.00;99.90;;;;;;4988641;28;20806;-84
2022/06/29 04:44:22;;;;;;;11.60;10.60;;;16.00;99.90;;;;;;4988973;28;20417;-84
2022/06/29 04:46:50;;;;;;;10.80;9.90;;;16.00;99.90;;;;;;4989436;28;20459;-84
2022/06/29 04:49:20;;;;;;;10.37;9.60;;;16.00;99.90;;;;;;4987383;28;20462;-84
2022/06/29 04:51:48;;;;;;;9.90;9.20;;;16.10;99.90;;;;;;4986916;28;20552;-84
2022/06/29 04:54:17;;;;;;;10.37;9.30;;;16.10;99.90;;;;;;4987237;28;20483;-84
2022/06/29 04:56:46;;;;;;;10.03;9.33;;;16.10;99.90;;;;;;4989438;28;20417;-83
2022/06/29 04:59:15;;;;;;;9.57;8.70;;;16.10;99.90;;;;;;4986995;28;20490;-84
2022/06/29 05:01:47;;;;;;;8.27;7.67;;;16.20;99.90;;;;;;4987505;28;20428;-84
2022/06/29 05:04:16;;;;;;;9.23;8.53;;;16.20;99.90;;;;;;4992924;28;20427;-83
2022/06/29 05:06:45;;;;;;;8.77;8.13;;;16.20;99.90;;;;;;4990058;28;20481;-83
2022/06/29 05:09:13;;;;;;;9.33;8.73;;;16.20;99.90;;;;;;4991556;28;20447;-84
2022/06/29 05:11:42;;;;;;;9.13;8.30;;;16.30;99.90;;;;;;4990743;28;21019;-83
2022/06/29 05:14:10;;;;;;;9.17;8.57;;;16.30;99.90;;;;;;4989132;28;20449;-83
2022/06/29 05:16:38;;;;;;;9.30;8.60;;;16.30;99.90;;;;;;5021697;28;20428;-84
2022/06/29 05:19:07;;;;;;;8.50;7.70;;;16.40;99.90;;;;;;5022029;28;20509;-83
2022/06/29 05:21:36;;;;;;;9.40;8.70;;;16.40;99.90;;;;;;4987774;28;20490;-83
2022/06/29 05:24:07;;;;;;;9.07;8.37;;;16.50;99.90;;;;;;4982607;28;20440;-83
2022/06/29 05:26:42;;;;;;;8.70;8.00;;;16.50;99.90;;;;;;4982710;28;20424;-83
2022/06/29 05:29:10;;;;;;;8.70;8.03;;;16.50;99.90;;;;;;4982785;28;20455;-83
2022/06/29 05:31:39;;;;;;;9.40;7.90;;;16.60;99.90;;;;;;4984495;28;20420;-82
2022/06/29 05:34:07;;;;;;;9.13;8.27;;;16.60;99.90;;;;;;4984000;28;20457;-83
2022/06/29 05:36:35;;;;;;;9.30;8.50;;;16.70;99.90;;;;;;4984778;28;20454;-83
2022/06/29 05:39:05;;;;;;;8.17;7.50;;;16.70;99.90;;;;;;4985248;28;20460;-83
2022/06/29 05:41:34;;;;;;;8.40;7.70;;;16.80;99.90;;;;;;4984075;28;20423;-82
2022/06/29 05:44:04;;;;;;;8.37;7.70;;;16.90;99.90;;;;;;4984509;28;20438;-82
2022/06/29 05:46:33;;;;;;;8.03;7.23;;;16.90;99.90;;;;;;4983892;28;20424;-83
2022/06/29 05:49:02;;;;;;;8.50;7.70;;;17.00;99.90;;;;;;4983952;28;20468;-83
2022/06/29 05:51:30;;;;;;;7.73;7.13;;;17.10;99.90;;;;;;4983499;28;20432;-83
2022/06/29 05:53:59;;;;;;;7.83;7.33;;;17.10;99.90;;;;;;4983268;28;20461;-83
2022/06/29 05:56:29;;;;;;;8.50;7.80;;;17.10;99.90;;;;;;4984176;28;20429;-82
2022/06/29 05:58:57;;;;;;;7.90;7.30;;;17.30;99.90;;;;;;4983851;28;20453;-83
2022/06/29 06:01:25;;;;;;;8.03;7.43;;;17.20;99.90;;;;;;4986978;28;20400;-83
2022/06/29 06:03:54;;;;;;;7.63;6.93;;;17.30;99.90;;;;;;4985960;28;20428;-82
2022/06/29 06:06:22;;;;;;;9.50;6.70;;;17.30;99.90;;;;;;4984917;28;20448;-82
2022/06/29 06:08:51;;;;;;;8.27;7.17;;;17.40;99.90;;;;;;4985269;28;20442;-82
2022/06/29 06:11:19;;;;;;;8.00;7.30;;;17.50;99.90;;;;;;4984482;28;20479;-82
2022/06/29 06:13:49;;;;;;;7.70;6.70;;;17.50;99.90;;;;;;4985796;28;20459;-82
2022/06/29 06:16:17;;;;;;;7.83;7.23;;;17.60;99.90;;;;;;4984298;28;20540;-81
2022/06/29 06:19:05;;;;;;;7.13;6.50;;;17.70;99.90;;;;;;4984511;28;20477;-82
2022/06/29 06:21:35;;;;;;;6.83;6.20;;;17.80;99.90;;;;;;4986189;28;20445;-82
2022/06/29 06:24:03;;;;;;;7.27;6.63;;;17.80;99.90;;;;;;4984663;28;20461;-81
2022/06/29 06:26:32;;;;;;;7.47;6.73;;;17.90;99.90;;;;;;4985482;28;20449;-82
2022/06/29 06:29:02;;;;;;;6.43;5.93;;;18.00;99.90;;;;;;4984903;28;20482;-82
2022/06/29 06:31:31;;;;;;;7.00;6.40;;;18.00;99.90;;;;;;4984458;28;20959;-82
2022/06/29 06:34:00;;;;;;;9.03;8.13;;;18.10;99.90;;;;;;4984517;28;20485;-83
2022/06/29 06:36:28;;;;;;;7.60;6.87;;;18.10;99.90;;;;;;4985026;28;20783;-82
2022/06/29 06:38:57;;;;;;;6.77;6.27;;;18.20;99.90;;;;;;4983863;28;20484;-82
2022/06/29 06:41:26;;;;;;;6.60;6.10;;;18.20;99.90;;;;;;4984207;28;20450;-82
2022/06/29 06:43:56;;;;;;;12.47;11.23;;;18.30;99.90;;;;;;4983184;28;20462;-82
2022/06/29 06:46:26;;;;;;;6.47;6.00;;;18.40;99.90;;;;;;4982686;28;20971;-83
2022/06/29 06:48:55;;;;;;;6.37;5.87;;;18.40;99.90;;;;;;4982947;28;20474;-82
2022/06/29 06:51:24;;;;;;;7.13;6.43;;;18.50;99.90;;;;;;4984574;28;20453;-82
2022/06/29 06:53:53;;;;;;;7.30;5.90;;;18.60;99.90;;;;;;4982130;28;20988;-82
2022/06/29 06:56:21;;;;;;;7.20;6.70;;;18.60;99.90;;;;;;4981918;28;20548;-82
2022/06/29 06:58:49;;;;;;;6.83;6.33;;;18.70;99.90;;;;;;4985104;28;20477;-82
2022/06/29 07:01:22;;;;;;;7.83;7.03;;;18.80;99.90;;;;;;4982764;28;20446;-82
2022/06/29 07:03:52;;;;;;;10.23;9.23;;;18.80;99.90;;;;;;4982190;28;20488;-82
2022/06/29 07:06:21;;;;;;;11.77;8.10;;;18.90;99.90;;;;;;4980891;28;20450;-83
2022/06/29 07:08:50;;;;;;;7.40;6.70;;;19.00;99.90;;;;;;4982783;28;20533;-82
2022/06/29 07:11:18;;;;;;;7.20;6.60;;;19.10;99.90;;;;;;4981446;28;20504;-82
2022/06/29 07:13:47;;;;;;;6.90;6.40;;;19.10;99.90;;;;;;4983784;28;21017;-82
2022/06/29 07:16:16;;;;;;;6.90;6.40;;;19.20;99.90;;;;;;4981002;28;20485;-83
2022/06/29 07:18:44;;;;;;;7.50;6.17;;;19.20;99.90;;;;;;4983651;28;20481;-82
2022/06/29 07:21:14;;;;;;;9.17;6.57;;;19.30;99.90;;;;;;4980765;28;20489;-82
2022/06/29 07:23:42;;;;;;;8.10;7.40;;;19.30;99.90;;;;;;4981186;28;20486;-82
2022/06/29 07:26:10;;;;;;;6.73;6.23;;;19.40;99.90;;;;;;4980137;28;20461;-82
2022/06/29 07:28:40;;;;;;;10.77;7.53;;;19.40;99.90;;;;;;4979254;28;20478;-81
2022/06/29 07:31:08;;;;;;;7.93;7.13;;;19.40;99.90;;;;;;4979557;28;20445;-82
2022/06/29 07:33:37;;;;;;;7.30;6.43;;;19.50;99.90;;;;;;4980584;28;20971;-82
2022/06/29 07:36:12;;;;;;;7.87;7.20;;;19.50;99.90;;;;;;4982683;28;20446;-82
2022/06/29 07:38:41;;;;;;;7.30;6.70;;;19.60;99.90;;;;;;4981504;28;20477;-81
2022/06/29 07:41:10;;;;;;;8.83;6.27;;;19.80;99.90;;;;;;4980877;28;21044;-81
2022/06/29 07:43:38;;;;;;;6.77;6.20;;;19.90;99.90;;;;;;4982237;28;20477;-82
2022/06/29 07:46:08;;;;;;;7.10;6.50;;;20.00;99.90;;;;;;4983217;28;20442;-81
2022/06/29 07:48:37;;;;;;;7.23;6.57;;;20.10;99.90;;;;;;4981870;28;20458;-81
2022/06/29 07:51:05;;;;;;;6.93;6.43;;;20.20;99.90;;;;;;4979126;28;20508;-82
2022/06/29 07:53:34;;;;;;;9.00;8.20;;;20.20;99.90;;;;;;4979129;28;20481;-82
2022/06/29 07:56:04;;;;;;;7.47;6.57;;;20.30;99.90;;;;;;4979024;28;20461;-83
2022/06/29 07:58:32;;;;;;;6.73;6.13;;;20.30;99.90;;;;;;4978101;28;20469;-80
2022/06/29 08:01:00;;;;;;;6.10;5.57;;;20.40;99.90;;;;;;4979245;28;20544;-81
2022/06/29 08:03:28;;;;;;;6.30;5.83;;;20.50;99.90;;;;;;4980253;28;20805;-82
2022/06/29 08:05:56;;;;;;;6.40;5.87;;;20.50;99.90;;;;;;4980167;28;20461;-81
2022/06/29 08:08:25;;;;;;;5.63;5.13;;;20.60;99.90;;;;;;4980241;28;20473;-81
2022/06/29 08:10:53;;;;;;;7.13;6.27;;;20.80;99.90;;;;;;4980842;28;20446;-82
2022/06/29 08:13:23;;;;;;;6.30;5.70;;;21.00;99.90;;;;;;4979836;28;20470;-82
2022/06/29 08:15:51;;;;;;;5.90;5.10;;;21.10;99.90;;;;;;4982550;28;20445;-80
2022/06/29 08:18:19;;;;;;;6.40;5.57;;;21.40;99.90;;;;;;4979526;28;20472;-81
2022/06/29 08:20:47;;;;;;;7.90;6.30;;;21.50;99.90;;;;;;4982191;28;20572;-81
2022/06/29 08:23:16;;;;;;;6.10;5.57;;;21.60;99.90;;;;;;4979845;28;20450;-82
2022/06/29 08:25:44;;;;;;;6.10;5.50;;;21.60;99.90;;;;;;4979597;28;21067;-81
2022/06/29 08:28:33;;;;;;;6.07;5.57;;;21.60;99.90;;;;;;4979937;28;20473;-83
2022/06/29 08:31:02;;;;;;;6.40;5.90;;;21.70;99.90;;;;;;4985597;28;20442;-82
2022/06/29 08:33:31;;;;;;;6.80;6.30;;;21.70;99.90;;;;;;4987480;28;20540;-82
2022/06/29 08:35:59;;;;;;;7.40;6.70;;;21.80;99.90;;;;;;4988048;28;20500;-82
2022/06/29 08:38:27;;;;;;;5.97;5.47;;;22.00;99.90;;;;;;4984193;28;20457;-81
2022/06/29 08:40:57;;;;;;;6.20;5.60;;;22.10;99.90;;;;;;4983272;28;20496;-82
2022/06/29 08:43:27;;;;;;;6.60;6.10;;;22.30;99.90;;;;;;4982125;28;20438;-82
2022/06/29 08:45:57;;;;;;;7.50;6.80;;;22.40;99.90;;;;;;4982091;28;20459;-81
2022/06/29 08:48:25;;;;;;;9.90;6.37;;;22.60;99.90;;;;;;4982531;28;20461;-82
2022/06/29 08:50:54;;;;;;;6.33;5.73;;;22.90;99.90;;;;;;4980046;28;20552;-81
2022/06/29 08:53:23;;;;;;;7.30;6.60;;;23.10;99.90;;;;;;4979988;28;20454;-81
2022/06/29 08:55:55;;;;;;;6.70;6.20;;;23.30;99.90;;;;;;4980065;28;20465;-81
2022/06/29 08:58:25;;;;;;;6.73;6.23;;;23.50;99.90;;;;;;4980619;28;20900;-81
2022/06/29 09:00:55;;;;;;;8.10;7.50;;;23.70;99.90;;;;;;4979705;28;20477;-80
2022/06/29 09:03:25;;;;;;;8.03;7.27;;;23.90;99.90;;;;;;4980988;28;20470;-80
2022/06/29 09:05:56;;;;;;;6.47;5.97;;;24.10;99.90;;;;;;4979523;28;20497;-82
2022/06/29 09:08:25;;;;;;;7.40;6.07;;;24.20;99.90;;;;;;4980110;28;20465;-82
2022/06/29 09:10:53;;;;;;;6.90;6.20;;;24.50;99.90;;;;;;4980749;28;20459;-82
2022/06/29 09:13:23;;;;;;;7.63;7.00;;;24.60;99.90;;;;;;4980495;28;20485;-81
2022/06/29 09:15:59;;;;;;;6.57;5.93;;;24.80;99.90;;;;;;4983246;28;20495;-81
2022/06/29 09:18:30;;;;;;;7.53;6.80;;;25.00;99.90;;;;;;4983676;28;20461;-80
2022/06/29 09:21:01;;;;;;;8.00;7.40;;;25.10;99.90;;;;;;4983495;28;20550;-80
2022/06/29 09:23:30;;;;;;;6.80;6.30;;;25.30;99.90;;;;;;4984401;28;20461;-82
2022/06/29 09:25:59;;;;;;;6.43;5.97;;;25.50;99.90;;;;;;4984019;28;20483;-80
2022/06/29 09:28:29;;;;;;;6.83;6.37;;;25.60;99.90;;;;;;4984153;28;20548;-80
2022/06/29 09:31:00;;;;;;;5.90;5.30;;;25.80;99.90;;;;;;4982871;28;20445;-80
2022/06/29 09:33:31;;;;;;;6.80;6.17;;;25.90;99.90;;;;;;4984846;28;20454;-81
2022/06/29 09:36:08;;;;;;;7.60;5.87;;;26.00;99.90;;;;;;4988399;28;20459;-82
2022/06/29 09:38:38;;;;;;;6.63;6.13;;;26.20;99.90;;;;;;4988979;28;20477;-81
2022/06/29 09:41:08;;;;;;;6.90;6.50;;;26.30;99.80;;;;;;4987939;28;20492;-80
2022/06/29 09:43:38;;;;;;;6.40;5.70;;;26.40;99.40;;;;;;4987943;28;20441;-80
2022/06/29 09:46:09;;;;;;;6.47;5.97;;;26.50;99.10;;;;;;4988501;28;20456;-80
2022/06/29 09:48:39;;;;;;;6.23;5.80;;;26.70;98.90;;;;;;4988171;28;20469;-80
2022/06/29 09:53:55;;;;;;;6.13;5.63;;;26.90;98.40;;;;;;4985031;28;20453;-81
2022/06/29 09:56:24;;;;;;;7.27;6.67;;;27.00;98.20;;;;;;4987200;28;20814;-80
2022/06/29 09:58:56;;;;;;;6.10;5.70;;;27.10;98.00;;;;;;4985737;28;20684;-80
2022/06/29 10:04:14;;;;;;;6.53;6.03;;;27.20;97.60;;;;;;4989926;28;20445;-80
2022/06/29 10:06:45;;;;;;;8.10;7.50;;;27.20;97.50;;;;;;4989835;28;20532;-82
2022/06/29 10:09:14;;;;;;;7.13;6.20;;;27.30;97.30;;;;;;4987500;28;20560;-81
2022/06/29 10:15:06;;;;;;;7.17;6.50;;;27.40;96.90;;;;;;4982185;28;20539;-85
2022/06/29 10:17:50;;;;;;;7.43;6.83;;;27.50;96.70;;;;;;4981371;28;20470;-86
2022/06/29 10:20:36;;;;;;;7.27;6.57;;;27.60;96.60;;;;;;4980761;28;20595;-84
2022/06/29 10:23:04;;;;;;;6.13;5.63;;;27.70;96.40;;;;;;4981338;28;20448;-85
2022/06/29 10:25:32;;;;;;;5.60;5.20;;;27.90;96.30;;;;;;4981000;28;20457;-85
2022/06/29 10:28:15;;;;;;;6.47;5.97;;;28.00;95.90;;;;;;4981561;28;20457;-84
2022/06/29 10:30:45;;;;;;;6.20;5.80;;;28.10;95.70;;;;;;4980010;28;20524;-84
2022/06/29 10:33:34;;;;;;;5.80;5.40;;;28.10;95.40;;;;;;4980526;28;20457;-85
2022/06/29 10:36:05;;;;;;;6.03;5.50;;;28.20;94.60;;;;;;4981239;28;20444;-84
2022/06/29 10:39:11;;;;;;;6.40;5.80;;;28.30;94.60;;;;;;4981911;28;20473;-84
2022/06/29 10:44:58;;;;;;;6.00;5.60;;;28.20;94.00;;;;;;4979620;28;20818;-84
2022/06/29 10:47:27;;;;;;;6.13;5.60;;;28.30;94.10;;;;;;4980071;28;20545;-85
2022/06/29 10:50:26;;;;;;;7.10;6.33;;;28.40;94.00;;;;;;4979933;28;20465;-84
2022/06/29 10:52:56;;;;;;;35.17;6.60;;;28.50;93.70;;;;;;4980158;28;20445;-84
2022/06/29 10:55:27;;;;;;;9.20;6.17;;;28.60;93.60;;;;;;4980974;28;20438;-84
2022/06/29 10:57:57;;;;;;;6.80;6.20;;;28.70;93.40;;;;;;4978955;28;20456;-84
2022/06/29 11:00:29;;;;;;;6.17;5.70;;;28.70;93.30;;;;;;4980348;28;20477;-85
2022/06/29 11:02:57;;;;;;;5.83;5.27;;;28.70;92.90;;;;;;4980427;28;20437;-83
2022/06/29 11:05:27;;;;;;;5.93;5.43;;;28.70;92.60;;;;;;4980194;28;20955;-84
2022/06/29 11:13:30;;;;;;;5.80;5.43;;;28.80;92.10;;;;;;4986999;28;20881;-85
2022/06/29 11:15:59;;;;;;;5.47;4.97;;;28.80;91.90;;;;;;4979575;28;20492;-85
2022/06/29 11:18:29;;;;;;;6.37;5.60;;;28.90;91.90;;;;;;4979634;28;20983;-85
2022/06/29 11:21:03;;;;;;;6.03;5.53;;;29.00;91.90;;;;;;5011652;28;20477;-86
2022/06/29 11:23:33;;;;;;;6.57;6.00;;;29.00;91.70;;;;;;4980304;28;20481;-86
2022/06/29 11:26:03;;;;;;;5.37;4.90;;;29.20;91.50;;;;;;4981418;28;20473;-85
2022/06/29 11:28:34;;;;;;;5.10;4.70;;;29.20;91.40;;;;;;4979344;28;20497;-85
2022/06/29 11:31:09;;;;;;;5.23;4.83;;;29.30;91.30;;;;;;4979327;28;20536;-85
2022/06/29 11:33:42;;;;;;;5.30;4.90;;;29.30;91.20;;;;;;4980522;28;20441;-86
2022/06/29 11:36:14;;;;;;;4.97;4.67;;;29.30;91.10;;;;;;4979103;28;20471;-85
2022/06/29 11:38:47;;;;;;;5.87;5.37;;;29.30;91.00;;;;;;4978604;28;21041;-85
2022/06/29 11:41:17;;;;;;;5.60;5.20;;;29.30;91.00;;;;;;4979254;28;20468;-86
2022/06/29 11:44:06;;;;;;;9.93;8.77;;;29.30;90.90;;;;;;4979189;28;20442;-85
2022/06/29 11:46:36;;;;;;;7.00;6.40;;;29.40;90.70;;;;;;4979011;28;20445;-86
2022/06/29 11:51:56;;;;;;;5.77;5.37;;;29.50;90.60;;;;;;4979198;28;20445;-85
2022/06/29 11:54:39;;;;;;;5.20;4.80;;;29.50;90.70;;;;;;4978692;28;20959;-81
2022/06/29 11:57:12;;;;;;;4.60;4.20;;;29.50;90.50;;;;;;4977690;28;20480;-78
2022/06/29 11:59:40;;;;;;;5.53;5.13;;;29.60;90.40;;;;;;4976444;28;20870;-78
2022/06/29 12:02:10;;;;;;;4.73;4.30;;;29.60;90.30;;;;;;4977231;28;20465;-79
2022/06/29 12:04:39;;;;;;;4.53;4.23;;;29.60;89.80;;;;;;4975316;28;20453;-77
2022/06/29 12:07:11;;;;;;;4.70;4.30;;;29.50;89.50;;;;;;4976421;28;20449;-77
2022/06/29 12:09:41;;;;;;;4.47;4.17;;;29.50;89.20;;;;;;4974911;28;20496;-77
2022/06/29 12:12:11;;;;;;;5.30;4.90;;;29.40;89.20;;;;;;4977006;28;20532;-78
2022/06/29 12:14:40;;;;;;;4.03;3.73;;;29.40;88.70;;;;;;4976364;28;20536;-79
2022/06/29 12:17:11;;;;;;;4.40;4.10;;;29.40;88.60;;;;;;4974493;28;20978;-78
2022/06/29 12:19:39;;;;;;;5.17;4.70;;;29.40;88.30;;;;;;4976708;28;20465;-77
2022/06/29 12:22:09;;;;;;;6.70;6.20;;;29.50;88.10;;;;;;4978295;28;20469;-83
2022/06/29 12:24:39;;;;;;;6.73;6.13;;;29.60;87.80;;;;;;4980673;28;20501;-83
2022/06/29 12:27:07;;;;;;;4.40;4.10;;;29.60;87.50;;;;;;4983443;28;20461;-83
2022/06/29 12:29:35;;;;;;;4.63;4.33;;;29.60;87.30;;;;;;4981954;28;20504;-82
2022/06/29 12:32:04;;;;;;;4.40;4.00;;;29.60;86.90;;;;;;4982890;28;20876;-82
2022/06/29 12:34:33;;;;;;;6.87;6.00;;;29.70;86.90;;;;;;4980338;28;20888;-82
2022/06/29 12:37:03;;;;;;;4.40;4.10;;;29.70;86.70;;;;;;4982122;28;20436;-82
2022/06/29 12:39:33;;;;;;;4.40;3.87;;;29.80;86.40;;;;;;4980917;28;20556;-82
2022/06/29 12:42:03;;;;;;;4.20;3.90;;;29.70;86.20;;;;;;4981172;28;20496;-83
2022/06/29 12:44:31;;;;;;;4.50;4.20;;;29.80;85.90;;;;;;4981588;28;20454;-84
2022/06/29 12:46:59;;;;;;;4.67;4.00;;;29.80;85.70;;;;;;4982510;28;20461;-82
2022/06/29 12:49:27;;;;;;;4.60;4.20;;;29.80;85.80;;;;;;4983065;28;20466;-81
2022/06/29 12:51:55;;;;;;;4.23;3.93;;;29.80;85.90;;;;;;4983532;28;20951;-83
2022/06/29 12:54:24;;;;;;;6.60;3.90;;;29.90;85.60;;;;;;4984522;28;20601;-82
2022/06/29 12:56:53;;;;;;;5.70;5.20;;;29.90;85.10;;;;;;4985265;28;20454;-83
2022/06/29 12:59:22;;;;;;;7.50;6.80;;;30.00;84.90;;;;;;4984049;28;20551;-82
2022/06/29 13:01:51;;;;;;;4.67;4.37;;;30.00;84.90;;;;;;4984127;28;20545;-82
2022/06/29 13:04:21;;;;;;;4.83;4.17;;;30.00;84.40;;;;;;4983982;28;20484;-82
2022/06/29 13:06:51;;;;;;;4.27;3.87;;;30.00;84.00;;;;;;4983262;28;20834;-82
2022/06/29 13:09:19;;;;;;;4.00;3.63;;;30.00;84.00;;;;;;4982720;28;20504;-82
2022/06/29 13:11:47;;;;;;;3.80;3.50;;;30.00;83.60;;;;;;4982251;28;20478;-82
2022/06/29 13:14:17;;;;;;;7.80;4.20;;;30.00;83.10;;;;;;4980495;28;20488;-82
2022/06/29 13:16:47;;;;;;;4.00;3.80;;;30.00;82.60;;;;;;4983087;28;20510;-82
2022/06/29 13:19:15;;;;;;;3.80;3.50;;;30.00;82.70;;;;;;4982103;28;20473;-82